Time;durP1;ratioP1;P1;durP2;ratioP2;P2;SDS_P1;SDS_P2;PMS_P1;PMS_P2;Temp;Humidity;BMP_temperature;BMP_pressure;BME280_temperature;BME280_humidity;BME280_pressure;Samples;Min_cycle;Max_cycle;Signal;HPM_P1;HPM_P2
2023/06/02 00:02:12;;;;;;;28.90;7.53;;;21.80;99.90;;;;;;5053130;28;20188;-71
2023/06/02 00:04:40;;;;;;;24.07;6.80;;;22.10;99.90;;;;;;5053597;28;20180;-71
2023/06/02 00:07:11;;;;;;;23.70;6.57;;;22.30;99.90;;;;;;5065630;28;20187;-70
2023/06/02 00:09:40;;;;;;;21.10;5.67;;;22.70;99.90;;;;;;5072336;28;20271;-70
2023/06/02 00:15:31;;;;;;;20.23;5.60;;;23.00;99.90;;;;;;5032499;28;20195;-70
2023/06/02 00:17:59;;;;;;;21.90;5.03;;;22.80;99.90;;;;;;5032193;28;20635;-71
2023/06/02 00:20:27;;;;;;;21.50;4.47;;;23.20;99.90;;;;;;5048528;28;20184;-71
2023/06/02 00:22:57;;;;;;;16.30;4.57;;;23.30;99.90;;;;;;5035441;28;20235;-71
2023/06/02 00:25:24;;;;;;;22.40;6.70;;;22.80;99.90;;;;;;5035022;28;20188;-71
2023/06/02 00:34:36;;;;;;;17.70;4.63;;;22.50;99.90;;;;;;5052399;28;20693;-71
2023/06/02 00:37:04;;;;;;;15.77;4.87;;;23.10;99.90;;;;;;5052861;28;20654;-71
2023/06/02 00:39:35;;;;;;;22.90;5.43;;;23.60;99.90;;;;;;5052874;28;20630;-70
2023/06/02 00:42:04;;;;;;;14.30;5.20;;;23.90;99.90;;;;;;5040786;28;20534;-69
2023/06/02 00:44:32;;;;;;;17.30;4.47;;;23.70;99.90;;;;;;5072239;28;20220;-70
2023/06/02 00:47:27;;;;;;;19.63;5.83;;;24.10;99.90;;;;;;5072179;28;20632;-72
2023/06/02 00:49:55;;;;;;;17.87;5.40;;;24.40;99.90;;;;;;5073686;28;20188;-71
2023/06/02 00:52:24;;;;;;;19.20;4.60;;;24.40;99.90;;;;;;5072486;28;20208;-72
2023/06/02 00:54:53;;;;;;;19.57;5.20;;;24.40;99.90;;;;;;5072876;28;20168;-72
2023/06/02 00:57:21;;;;;;;24.30;5.77;;;23.60;99.90;;;;;;5058316;28;20191;-71
2023/06/02 00:59:49;;;;;;;20.30;4.87;;;23.50;99.90;;;;;;5034666;28;20180;-71
2023/06/02 01:02:17;;;;;;;13.63;4.20;;;23.50;99.90;;;;;;5043503;28;20213;-71
2023/06/02 01:04:46;;;;;;;19.07;5.07;;;23.90;99.90;;;;;;5014627;28;20563;-71
2023/06/02 01:07:23;;;;;;;18.60;4.47;;;24.20;99.90;;;;;;5041623;28;20187;-71
2023/06/02 01:10:18;;;;;;;16.43;4.40;;;25.00;99.90;;;;;;5061816;28;20183;-72
2023/06/02 01:12:46;;;;;;;15.40;4.20;;;25.00;99.90;;;;;;5071366;28;20786;-70
2023/06/02 01:15:14;;;;;;;29.93;5.67;;;24.90;99.90;;;;;;5056188;28;20179;-70
2023/06/02 01:17:45;;;;;;;26.57;5.60;;;24.90;99.90;;;;;;5051822;28;20672;-69
2023/06/02 01:20:21;;;;;;;26.47;5.00;;;24.50;99.90;;;;;;5051413;28;20195;-72
2023/06/02 01:23:08;;;;;;;16.67;4.37;;;24.50;99.90;;;;;;5051066;28;20176;-71
2023/06/02 01:25:36;;;;;;;18.50;4.67;;;24.20;99.90;;;;;;5051359;28;20275;-72
2023/06/02 01:28:06;;;;;;;19.87;4.70;;;23.40;99.90;;;;;;5033213;28;20285;-71
2023/06/02 01:30:34;;;;;;;18.67;4.30;;;23.60;99.90;;;;;;5051172;28;20169;-71
2023/06/02 01:33:23;;;;;;;25.13;4.37;;;24.00;99.90;;;;;;5050659;28;20550;-71
2023/06/02 01:35:59;;;;;;;18.90;4.73;;;23.70;99.90;;;;;;5051303;28;20176;-71
2023/06/02 01:39:18;;;;;;;15.77;4.70;;;24.10;99.90;;;;;;5050795;28;20229;-72
2023/06/02 01:41:48;;;;;;;20.50;3.87;;;25.00;99.90;;;;;;5051950;28;20263;-70
2023/06/02 01:44:15;;;;;;;15.60;4.00;;;25.40;99.90;;;;;;5034215;28;20227;-71
2023/06/02 01:46:44;;;;;;;19.53;4.63;;;25.70;99.90;;;;;;5055496;28;20188;-71
2023/06/02 01:52:35;;;;;;;17.60;4.67;;;25.80;99.90;;;;;;5045952;28;20262;-72
2023/06/02 01:55:03;;;;;;;17.93;4.03;;;25.50;99.90;;;;;;5050780;28;20327;-72
2023/06/02 01:57:56;;;;;;;18.93;4.50;;;25.60;99.90;;;;;;5028294;28;20220;-72
2023/06/02 02:00:24;;;;;;;21.13;4.60;;;26.00;99.90;;;;;;5028476;28;20224;-72
2023/06/02 02:02:52;;;;;;;16.53;4.27;;;25.50;99.90;;;;;;5042014;28;20238;-71
2023/06/02 02:05:20;;;;;;;20.47;4.87;;;25.50;99.90;;;;;;5048733;28;20184;-72
2023/06/02 02:07:50;;;;;;;20.63;5.50;;;25.70;99.90;;;;;;5049029;28;20311;-72
2023/06/02 02:13:40;;;;;;;14.73;3.87;;;24.80;99.90;;;;;;5008286;28;20757;-72
2023/06/02 02:16:07;;;;;;;19.47;3.83;;;24.60;99.90;;;;;;5009068;28;20278;-71
2023/06/02 02:18:35;;;;;;;13.00;3.47;;;24.10;99.90;;;;;;5009002;28;20614;-72
2023/06/02 02:21:03;;;;;;;14.50;4.10;;;24.20;99.90;;;;;;5009134;28;20598;-72
2023/06/02 02:23:31;;;;;;;13.30;4.10;;;24.30;99.90;;;;;;5031966;28;20195;-71
2023/06/02 02:25:58;;;;;;;12.77;3.70;;;24.40;99.90;;;;;;5047088;28;20253;-72
2023/06/02 02:28:26;;;;;;;12.53;2.97;;;24.40;99.90;;;;;;5048411;28;20189;-72
2023/06/02 02:30:54;;;;;;;13.73;3.67;;;25.00;99.90;;;;;;5048410;28;20180;-72
2023/06/02 02:33:25;;;;;;;13.70;3.57;;;25.70;99.90;;;;;;5048259;28;20266;-73
2023/06/02 02:35:53;;;;;;;18.07;4.00;;;25.40;99.90;;;;;;5048533;28;20173;-71
2023/06/02 02:38:21;;;;;;;13.00;3.90;;;24.80;99.90;;;;;;5032269;28;20207;-72
2023/06/02 02:40:48;;;;;;;17.47;4.07;;;24.90;99.90;;;;;;5018247;28;20575;-72
2023/06/02 02:43:17;;;;;;;14.97;3.97;;;24.40;99.90;;;;;;5054920;28;20169;-72
2023/06/02 02:45:45;;;;;;;14.23;3.80;;;24.40;99.90;;;;;;5054665;28;20727;-72
2023/06/02 02:48:13;;;;;;;15.47;3.20;;;24.70;99.90;;;;;;5054031;28;20185;-72
2023/06/02 02:50:41;;;;;;;18.50;3.57;;;24.40;99.90;;;;;;5054783;28;20173;-71
2023/06/02 02:53:09;;;;;;;19.43;3.87;;;25.00;99.90;;;;;;5054597;28;20270;-70
2023/06/02 02:55:38;;;;;;;14.47;3.07;;;25.30;99.90;;;;;;5054790;28;20177;-71
2023/06/02 02:58:08;;;;;;;14.87;4.27;;;24.80;99.90;;;;;;5036870;28;20188;-71
2023/06/02 03:00:36;;;;;;;18.10;3.73;;;24.80;99.90;;;;;;5054070;28;20172;-71
2023/06/02 03:03:05;;;;;;;17.47;3.53;;;24.60;99.90;;;;;;5049476;28;20189;-71
2023/06/02 03:05:34;;;;;;;15.83;3.67;;;24.70;99.90;;;;;;5054119;28;20173;-72
2023/06/02 03:08:03;;;;;;;10.33;3.03;;;25.10;99.90;;;;;;5054690;28;20181;-72
2023/06/02 03:10:31;;;;;;;15.00;3.50;;;25.40;99.90;;;;;;5054558;28;20172;-72
2023/06/02 03:12:59;;;;;;;15.27;3.63;;;25.80;99.90;;;;;;5054290;28;20242;-72
2023/06/02 03:15:27;;;;;;;12.77;3.20;;;26.00;99.90;;;;;;5053995;28;20185;-72
2023/06/02 03:17:55;;;;;;;14.50;4.17;;;25.70;99.90;;;;;;5053921;28;20650;-72
2023/06/02 03:20:25;;;;;;;12.73;3.07;;;24.00;99.90;;;;;;5054462;28;20203;-71
2023/06/02 03:22:53;;;;;;;15.93;3.10;;;24.10;99.90;;;;;;5054368;28;20189;-71
2023/06/02 03:25:21;;;;;;;15.50;2.97;;;23.90;99.90;;;;;;5053976;28;20287;-71
2023/06/02 03:27:52;;;;;;;19.07;3.37;;;23.40;99.90;;;;;;5054161;28;20180;-71
2023/06/02 03:30:20;;;;;;;16.90;3.53;;;23.50;99.90;;;;;;5054276;28;20180;-72
2023/06/02 03:32:48;;;;;;;15.30;3.70;;;24.10;99.90;;;;;;5054283;28;20228;-72
2023/06/02 03:35:16;;;;;;;13.30;3.20;;;24.30;99.90;;;;;;5035993;28;20191;-71
2023/06/02 03:37:44;;;;;;;21.33;3.63;;;24.70;99.90;;;;;;5016427;28;20189;-72
2023/06/02 03:40:12;;;;;;;14.60;3.00;;;24.90;99.90;;;;;;5016350;28;20603;-70
2023/06/02 03:42:40;;;;;;;11.53;3.23;;;25.20;99.90;;;;;;5034223;28;20173;-72
2023/06/02 03:45:08;;;;;;;11.10;3.33;;;25.50;99.90;;;;;;5045366;28;20225;-72
2023/06/02 03:47:36;;;;;;;14.97;3.57;;;25.40;99.90;;;;;;5053755;28;20192;-72
2023/06/02 03:50:04;;;;;;;13.20;3.60;;;25.50;99.90;;;;;;5053861;28;20260;-72
2023/06/02 03:52:32;;;;;;;17.47;3.53;;;25.30;99.90;;;;;;5053547;28;20258;-72
2023/06/02 03:55:00;;;;;;;11.10;3.20;;;25.20;99.90;;;;;;5053475;28;20187;-72
2023/06/02 03:57:28;;;;;;;12.67;2.73;;;25.20;99.90;;;;;;5051409;28;20272;-71
2023/06/02 03:59:55;;;;;;;16.30;3.77;;;25.30;99.90;;;;;;5035623;28;20199;-71
2023/06/02 04:02:23;;;;;;;14.43;3.53;;;25.40;99.90;;;;;;5053351;28;20195;-71
2023/06/02 04:04:51;;;;;;;11.13;2.83;;;25.40;99.90;;;;;;5053623;28;20554;-72
2023/06/02 04:07:19;;;;;;;9.67;3.27;;;25.60;99.90;;;;;;5053036;28;20176;-71
2023/06/02 04:09:46;;;;;;;16.03;3.77;;;25.50;99.90;;;;;;5053575;28;20212;-72
2023/06/02 04:12:14;;;;;;;10.47;3.30;;;25.40;99.90;;;;;;5053092;28;20520;-72
2023/06/02 04:14:42;;;;;;;11.00;3.23;;;25.40;99.90;;;;;;5052994;28;20173;-72
2023/06/02 04:17:09;;;;;;;12.17;3.60;;;25.40;99.90;;;;;;5053217;28;20168;-73
2023/06/02 04:19:37;;;;;;;13.87;3.20;;;25.80;99.90;;;;;;5052859;28;20192;-72
2023/06/02 04:22:05;;;;;;;13.00;3.47;;;25.60;99.90;;;;;;5035091;28;20212;-71
2023/06/02 04:24:33;;;;;;;13.20;3.17;;;25.40;99.90;;;;;;5053356;28;20181;-72
2023/06/02 04:27:04;;;;;;;12.17;3.00;;;24.90;99.90;;;;;;5052694;28;20232;-71
2023/06/02 04:29:33;;;;;;;12.70;3.20;;;25.00;99.90;;;;;;5052292;28;20642;-72
2023/06/02 04:32:01;;;;;;;15.07;3.57;;;24.90;99.90;;;;;;5028557;28;20235;-72
2023/06/02 04:34:29;;;;;;;10.23;3.47;;;24.20;99.90;;;;;;5033093;28;20213;-72
2023/06/02 04:36:56;;;;;;;11.47;3.97;;;23.30;99.90;;;;;;5033141;28;20172;-74
2023/06/02 04:39:24;;;;;;;13.47;3.57;;;23.20;99.90;;;;;;5048100;28;20185;-72
2023/06/02 04:41:52;;;;;;;14.97;4.00;;;23.60;99.90;;;;;;5052628;28;20191;-72
2023/06/02 04:44:22;;;;;;;9.53;3.67;;;23.90;99.90;;;;;;5052535;28;20863;-72
2023/06/02 04:46:50;;;;;;;13.87;3.70;;;24.00;99.90;;;;;;5052655;28;20191;-72
2023/06/02 04:49:17;;;;;;;13.87;4.17;;;23.40;99.90;;;;;;5052781;28;20230;-72
2023/06/02 04:51:45;;;;;;;17.53;3.83;;;23.40;99.90;;;;;;5052248;28;20649;-71
2023/06/02 04:54:15;;;;;;;16.40;3.70;;;23.30;99.90;;;;;;5052048;28;20681;-72
2023/06/02 04:56:42;;;;;;;19.73;3.83;;;23.10;99.90;;;;;;5052301;28;20169;-71
2023/06/02 04:59:11;;;;;;;8.23;2.97;;;22.80;99.90;;;;;;5052277;28;20650;-72
2023/06/02 05:01:38;;;;;;;16.13;3.60;;;22.90;99.90;;;;;;5052288;28;20176;-72
2023/06/02 05:04:06;;;;;;;13.93;3.23;;;22.90;99.90;;;;;;5051101;28;20176;-71
2023/06/02 05:06:33;;;;;;;16.63;3.90;;;22.90;99.90;;;;;;5062227;28;20168;-71
2023/06/02 05:09:04;;;;;;;9.43;3.47;;;22.80;99.90;;;;;;5057743;28;20664;-71
2023/06/02 05:11:32;;;;;;;7.60;3.13;;;22.80;99.90;;;;;;5069545;28;20222;-71
2023/06/02 05:13:59;;;;;;;8.30;3.83;;;22.60;99.90;;;;;;5051512;28;20302;-71
2023/06/02 05:16:29;;;;;;;12.93;3.27;;;22.40;99.90;;;;;;5051625;28;20172;-72
2023/06/02 05:18:56;;;;;;;14.43;4.37;;;22.30;99.90;;;;;;5033707;28;20667;-71
2023/06/02 05:21:23;;;;;;;9.30;3.30;;;22.00;99.90;;;;;;5051717;28;20263;-72
2023/06/02 05:23:51;;;;;;;11.00;3.70;;;21.90;99.90;;;;;;5051567;28;20734;-72
2023/06/02 05:26:18;;;;;;;13.97;3.77;;;21.80;99.90;;;;;;5051789;28;20711;-72
2023/06/02 05:28:49;;;;;;;10.70;4.33;;;21.80;99.90;;;;;;5051697;28;20184;-72
2023/06/02 05:31:16;;;;;;;13.80;4.37;;;21.80;99.90;;;;;;5046023;28;20184;-71
2023/06/02 05:33:43;;;;;;;9.83;3.90;;;21.80;99.90;;;;;;5036112;28;20212;-72
2023/06/02 05:36:10;;;;;;;14.70;4.47;;;21.70;99.90;;;;;;5051435;28;20208;-69
2023/06/02 05:38:44;;;;;;;9.63;4.23;;;21.60;99.90;;;;;;5051646;28;20273;-71
2023/06/02 05:41:12;;;;;;;16.73;4.90;;;21.50;99.90;;;;;;5054823;28;20202;-72
2023/06/02 05:43:39;;;;;;;13.00;4.40;;;21.40;99.90;;;;;;5035915;28;20181;-71
2023/06/02 05:46:06;;;;;;;15.97;5.13;;;21.30;99.90;;;;;;5031515;28;20759;-72
2023/06/02 05:48:34;;;;;;;15.23;5.13;;;21.30;99.90;;;;;;5031516;28;20200;-72
2023/06/02 05:51:01;;;;;;;21.87;5.50;;;21.10;99.90;;;;;;5023556;28;20173;-72
2023/06/02 05:53:29;;;;;;;16.50;5.03;;;20.90;99.90;;;;;;5034467;28;20827;-72
2023/06/02 05:55:56;;;;;;;19.77;5.10;;;20.80;99.90;;;;;;5032034;28;20239;-73
2023/06/02 05:58:23;;;;;;;21.53;6.03;;;20.60;99.90;;;;;;5034696;28;20234;-74
2023/06/02 06:00:51;;;;;;;13.20;4.80;;;20.60;99.90;;;;;;5051369;28;20292;-71
2023/06/02 06:03:18;;;;;;;21.13;5.43;;;20.50;99.90;;;;;;5051427;28;20219;-71
2023/06/02 06:05:45;;;;;;;21.17;6.27;;;20.50;99.90;;;;;;5051048;28;20172;-71
2023/06/02 06:08:13;;;;;;;16.70;5.00;;;20.40;99.90;;;;;;5033430;28;20176;-71
2023/06/02 06:10:43;;;;;;;17.43;5.03;;;20.40;99.90;;;;;;5033146;28;20528;-71
2023/06/02 06:13:10;;;;;;;17.50;5.23;;;20.30;99.90;;;;;;5051088;28;20304;-71
2023/06/02 06:15:38;;;;;;;18.47;5.17;;;20.30;99.90;;;;;;5052967;28;20201;-72
2023/06/02 06:18:06;;;;;;;22.37;5.90;;;20.30;99.90;;;;;;5055245;28;20284;-72
2023/06/02 06:20:33;;;;;;;20.10;6.30;;;20.20;99.90;;;;;;5055511;28;20184;-70
2023/06/02 06:23:00;;;;;;;16.03;4.97;;;20.20;99.90;;;;;;5055769;28;20229;-72
2023/06/02 06:25:28;;;;;;;21.50;6.10;;;20.20;99.90;;;;;;5055420;28;20581;-71
2023/06/02 06:27:55;;;;;;;16.37;5.20;;;20.10;99.90;;;;;;5055655;28;20196;-72
2023/06/02 06:30:23;;;;;;;23.23;6.40;;;20.00;99.90;;;;;;5055542;28;20187;-70
2023/06/02 06:32:50;;;;;;;20.17;5.63;;;19.90;99.90;;;;;;5054668;28;20250;-70
2023/06/02 06:35:17;;;;;;;13.37;4.97;;;19.70;99.90;;;;;;5056065;28;20208;-69
2023/06/02 06:37:45;;;;;;;22.67;5.50;;;19.60;99.90;;;;;;5055464;28;20336;-71
2023/06/02 06:40:12;;;;;;;25.93;6.03;;;19.60;99.90;;;;;;5054956;28;20204;-71
2023/06/02 06:42:39;;;;;;;26.97;6.27;;;19.60;99.90;;;;;;5054906;28;20190;-71
2023/06/02 06:45:07;;;;;;;17.50;4.77;;;19.50;99.90;;;;;;5054772;28;20243;-72
2023/06/02 06:47:35;;;;;;;26.07;6.17;;;19.60;99.90;;;;;;5054632;28;20184;-71
2023/06/02 06:50:02;;;;;;;22.27;6.03;;;19.70;99.90;;;;;;5052863;28;20216;-72
2023/06/02 06:52:29;;;;;;;17.60;5.07;;;19.50;99.90;;;;;;5054266;28;20176;-71
2023/06/02 06:54:57;;;;;;;20.30;5.17;;;19.50;99.90;;;;;;5054474;28;20683;-72
2023/06/02 06:57:24;;;;;;;18.90;4.87;;;19.30;99.90;;;;;;5054534;28;20302;-71
2023/06/02 06:59:51;;;;;;;20.93;5.10;;;19.20;99.90;;;;;;5054055;28;20192;-73
2023/06/02 07:02:19;;;;;;;20.47;5.27;;;19.10;99.90;;;;;;5063937;28;20235;-71
2023/06/02 07:04:46;;;;;;;22.87;5.10;;;19.00;99.90;;;;;;5073690;28;20681;-72
2023/06/02 07:07:14;;;;;;;19.23;4.93;;;18.90;99.90;;;;;;5074413;28;20177;-70
2023/06/02 07:13:27;;;;;;;22.17;5.63;;;18.70;99.90;;;;;;5054274;28;20221;-71
2023/06/02 07:15:54;;;;;;;26.77;6.07;;;18.70;99.90;;;;;;5053984;28;20187;-71
2023/06/02 07:18:22;;;;;;;23.63;5.83;;;18.60;99.90;;;;;;5054258;28;20256;-72
2023/06/02 07:20:49;;;;;;;18.60;5.17;;;18.50;99.90;;;;;;5054195;28;20283;-71
2023/06/02 07:23:16;;;;;;;22.47;5.63;;;18.40;99.90;;;;;;5054203;28;20184;-71
2023/06/02 07:25:45;;;;;;;26.23;6.20;;;18.40;99.90;;;;;;5053645;28;20223;-71
2023/06/02 07:28:12;;;;;;;22.27;5.50;;;18.40;99.90;;;;;;5053096;28;20650;-73
2023/06/02 07:30:43;;;;;;;23.90;6.27;;;18.20;99.90;;;;;;5034184;28;20178;-70
2023/06/02 07:33:11;;;;;;;18.73;5.33;;;18.20;99.90;;;;;;5047069;28;20215;-70
2023/06/02 07:35:38;;;;;;;21.17;5.30;;;18.20;99.90;;;;;;5053414;28;20263;-71
2023/06/02 07:38:05;;;;;;;22.13;5.07;;;18.10;99.90;;;;;;5054041;28;20177;-70
2023/06/02 07:40:33;;;;;;;25.43;5.63;;;18.10;99.90;;;;;;5053774;28;20216;-71
2023/06/02 07:43:00;;;;;;;23.23;5.20;;;18.00;99.90;;;;;;5053830;28;20562;-70
2023/06/02 07:45:27;;;;;;;31.10;5.63;;;18.00;99.90;;;;;;5035602;28;20229;-71
2023/06/02 07:47:55;;;;;;;19.60;5.17;;;17.90;99.90;;;;;;5053880;28;20184;-71
2023/06/02 07:50:22;;;;;;;19.60;5.17;;;17.80;99.90;;;;;;5053667;28;20181;-70
2023/06/02 07:52:50;;;;;;;16.30;4.60;;;17.70;99.90;;;;;;5064790;28;20207;-71
2023/06/02 07:55:17;;;;;;;14.10;4.50;;;17.60;99.90;;;;;;5073618;28;20175;-71
2023/06/02 07:57:45;;;;;;;23.87;5.83;;;17.50;99.90;;;;;;5073631;28;20207;-70
2023/06/02 08:00:16;;;;;;;29.37;6.00;;;17.40;99.90;;;;;;5063294;28;20201;-71
2023/06/02 08:02:46;;;;;;;25.80;5.73;;;17.40;99.90;;;;;;5073330;28;20195;-71
2023/06/02 08:05:18;;;;;;;17.70;5.43;;;17.30;99.90;;;;;;5073399;28;20222;-69
2023/06/02 08:07:45;;;;;;;18.80;5.20;;;17.20;99.90;;;;;;5072852;28;20176;-70
2023/06/02 08:10:13;;;;;;;24.00;5.63;;;17.10;99.90;;;;;;5042457;28;20184;-72
2023/06/02 08:12:40;;;;;;;20.17;6.10;;;17.10;99.90;;;;;;5052898;28;20353;-72
2023/06/02 08:15:08;;;;;;;18.97;5.67;;;17.10;99.90;;;;;;5053149;28;20184;-71
2023/06/02 08:17:35;;;;;;;23.63;5.47;;;17.00;99.90;;;;;;5052793;28;20188;-69
2023/06/02 08:20:04;;;;;;;25.67;6.20;;;17.00;99.90;;;;;;5040895;28;20187;-71
2023/06/02 08:22:33;;;;;;;25.13;5.20;;;16.90;99.90;;;;;;5072542;28;20188;-71
2023/06/02 08:25:02;;;;;;;26.20;6.10;;;16.90;99.90;;;;;;5064769;28;20176;-72
2023/06/02 08:27:30;;;;;;;14.23;5.20;;;16.90;99.90;;;;;;5063093;28;20196;-70
2023/06/02 08:29:58;;;;;;;19.93;5.70;;;16.80;99.90;;;;;;5072406;28;20180;-70
2023/06/02 08:32:25;;;;;;;17.87;5.77;;;16.70;99.90;;;;;;5072657;28;20219;-71
2023/06/02 08:35:01;;;;;;;19.00;6.10;;;16.70;99.90;;;;;;5065229;28;20187;-70
2023/06/02 08:37:31;;;;;;;27.43;4.93;;;16.60;99.90;;;;;;5054180;28;20190;-71
2023/06/02 08:39:59;;;;;;;21.30;5.30;;;16.50;99.90;;;;;;5071775;28;20180;-71
2023/06/02 08:42:27;;;;;;;19.70;4.67;;;16.50;99.90;;;;;;5072603;28;20171;-70
2023/06/02 08:44:55;;;;;;;25.77;5.30;;;16.50;99.90;;;;;;5071698;28;20235;-68
2023/06/02 08:47:25;;;;;;;17.07;5.57;;;16.40;99.90;;;;;;5071664;28;20684;-70
2023/06/02 08:49:53;;;;;;;17.20;5.17;;;16.40;99.90;;;;;;5053761;28;20603;-71
2023/06/02 08:52:23;;;;;;;18.27;5.10;;;16.30;99.90;;;;;;5053623;28;20180;-72
2023/06/02 08:54:51;;;;;;;18.00;6.03;;;16.20;99.90;;;;;;5071861;28;20225;-72
2023/06/02 08:57:21;;;;;;;23.10;6.10;;;16.20;99.90;;;;;;5054024;28;20221;-71
2023/06/02 08:59:49;;;;;;;22.70;5.97;;;16.10;99.90;;;;;;5072409;28;20263;-70
2023/06/02 09:02:18;;;;;;;17.47;5.30;;;16.10;99.90;;;;;;5071761;28;20275;-69
2023/06/02 09:04:45;;;;;;;18.30;5.00;;;16.10;99.90;;;;;;5067032;28;20180;-70
2023/06/02 09:07:13;;;;;;;17.33;5.43;;;16.10;99.90;;;;;;5052837;28;20182;-71
2023/06/02 09:09:55;;;;;;;16.07;4.70;;;16.00;99.90;;;;;;5053250;28;20224;-70
2023/06/02 09:12:23;;;;;;;22.80;5.27;;;16.00;99.90;;;;;;5052618;28;20238;-70
2023/06/02 09:15:10;;;;;;;19.00;5.77;;;16.00;99.90;;;;;;5052985;28;20268;-71
2023/06/02 09:17:38;;;;;;;19.23;5.20;;;15.90;99.90;;;;;;5053016;28;20176;-70
2023/06/02 09:20:11;;;;;;;16.43;5.20;;;15.80;99.90;;;;;;5052979;28;20239;-70
2023/06/02 09:22:58;;;;;;;20.93;5.80;;;15.80;99.90;;;;;;5052880;28;20191;-71
2023/06/02 09:25:28;;;;;;;19.00;4.80;;;15.80;99.90;;;;;;5034511;28;20196;-70
2023/06/02 09:27:57;;;;;;;17.47;4.93;;;15.80;99.90;;;;;;5052631;28;20173;-70
2023/06/02 09:30:26;;;;;;;19.57;5.23;;;15.70;99.90;;;;;;5052510;28;20258;-71
2023/06/02 09:32:57;;;;;;;16.43;5.20;;;15.80;99.90;;;;;;5052602;28;20254;-71
2023/06/02 09:35:41;;;;;;;19.33;4.73;;;15.80;99.90;;;;;;5052632;28;20223;-70
2023/06/02 09:38:11;;;;;;;16.70;5.77;;;15.70;99.90;;;;;;5051206;28;20176;-70
2023/06/02 09:40:42;;;;;;;21.53;6.30;;;15.70;99.90;;;;;;5051518;28;20255;-70
2023/06/02 09:43:12;;;;;;;21.27;5.77;;;15.80;99.90;;;;;;5051194;28;20600;-70
2023/06/02 09:45:48;;;;;;;21.60;6.33;;;15.80;99.90;;;;;;5052191;28;20220;-70
2023/06/02 09:48:23;;;;;;;17.50;6.90;;;15.90;99.90;;;;;;5053109;28;20182;-70
2023/06/02 09:50:51;;;;;;;21.93;7.50;;;16.00;99.90;;;;;;5054623;28;20255;-70
2023/06/02 09:53:18;;;;;;;20.70;6.93;;;16.10;99.90;;;;;;5052068;28;20212;-70
2023/06/02 09:55:48;;;;;;;13.77;6.13;;;16.10;99.90;;;;;;5051904;28;20188;-70
2023/06/02 09:58:15;;;;;;;27.07;7.07;;;16.20;99.90;;;;;;5051490;28;20192;-70
2023/06/02 10:00:43;;;;;;;23.97;6.33;;;16.30;99.90;;;;;;5051211;28;20545;-70
2023/06/02 10:03:10;;;;;;;17.30;6.40;;;16.40;99.90;;;;;;5051820;28;20181;-70
2023/06/02 10:05:48;;;;;;;17.43;6.10;;;16.40;99.90;;;;;;5051946;28;20172;-70
2023/06/02 10:08:15;;;;;;;19.57;5.87;;;16.40;99.90;;;;;;5024335;28;20275;-71
2023/06/02 10:11:00;;;;;;;14.83;5.50;;;16.40;99.90;;;;;;5048124;28;20543;-70
2023/06/02 10:14:06;;;;;;;17.50;5.47;;;16.40;99.90;;;;;;5046269;28;20219;-70
2023/06/02 10:16:43;;;;;;;19.70;5.93;;;16.30;99.90;;;;;;5038811;28;20175;-70
2023/06/02 10:19:23;;;;;;;17.13;5.30;;;16.30;99.90;;;;;;5051569;28;20218;-70
2023/06/02 10:22:34;;;;;;;19.23;6.47;;;16.20;99.90;;;;;;5051808;28;20176;-69
2023/06/02 10:25:19;;;;;;;18.17;4.87;;;16.20;99.90;;;;;;5051419;28;20184;-69
2023/06/02 10:27:48;;;;;;;15.80;6.17;;;16.20;99.90;;;;;;5051624;28;20234;-69
2023/06/02 10:30:23;;;;;;;14.23;5.00;;;16.20;99.90;;;;;;5052511;28;20180;-70
2023/06/02 10:32:51;;;;;;;20.80;4.73;;;16.20;99.90;;;;;;5051234;28;20292;-70
2023/06/02 10:35:19;;;;;;;15.17;5.63;;;16.20;99.90;;;;;;5051253;28;20189;-70
2023/06/02 10:37:46;;;;;;;19.87;6.00;;;16.20;99.90;;;;;;5051711;28;20481;-70
2023/06/02 10:40:15;;;;;;;16.27;5.27;;;16.10;99.90;;;;;;5051246;28;20263;-69
2023/06/02 10:43:21;;;;;;;14.43;5.57;;;16.10;99.90;;;;;;5051241;28;20234;-70
2023/06/02 10:45:48;;;;;;;18.43;5.93;;;16.00;99.90;;;;;;4986113;28;20578;-70
2023/06/02 10:48:37;;;;;;;16.93;5.13;;;15.90;99.90;;;;;;4988528;28;20751;-70
2023/06/02 10:51:09;;;;;;;18.47;6.13;;;15.80;99.90;;;;;;5016545;28;20208;-70
2023/06/02 10:54:02;;;;;;;25.33;7.43;;;15.80;99.90;;;;;;5051379;28;20661;-69
2023/06/02 10:56:45;;;;;;;22.70;6.60;;;15.80;99.90;;;;;;5030297;28;20189;-70
2023/06/02 10:59:31;;;;;;;31.03;8.33;;;15.80;99.90;;;;;;5045024;28;20194;-70
2023/06/02 11:01:59;;;;;;;16.23;6.70;;;15.80;99.90;;;;;;5051795;28;20531;-70
2023/06/02 11:04:31;;;;;;;24.00;7.40;;;15.80;99.90;;;;;;5055115;28;20188;-70
2023/06/02 11:07:21;;;;;;;22.13;6.93;;;15.80;99.90;;;;;;5057263;28;20520;-69
2023/06/02 11:10:06;;;;;;;19.60;6.70;;;15.80;99.90;;;;;;5070323;28;20536;-70
2023/06/02 11:12:59;;;;;;;21.27;6.80;;;15.70;99.90;;;;;;5062271;28;20183;-69
2023/06/02 11:15:27;;;;;;;19.47;6.67;;;15.60;99.90;;;;;;5051602;28;20689;-69
2023/06/02 11:17:54;;;;;;;18.50;6.60;;;15.60;99.90;;;;;;5038732;28;20272;-70
2023/06/02 11:20:36;;;;;;;18.07;7.30;;;15.60;99.90;;;;;;5053828;28;20184;-70
2023/06/02 11:23:05;;;;;;;13.27;6.50;;;15.60;99.90;;;;;;5052517;28;20179;-70
2023/06/02 11:25:33;;;;;;;18.07;7.03;;;15.60;99.90;;;;;;5054680;28;20666;-70
2023/06/02 11:28:00;;;;;;;16.63;6.90;;;15.70;99.90;;;;;;5052342;28;20268;-71
2023/06/02 11:30:28;;;;;;;13.70;5.80;;;15.70;99.90;;;;;;5054670;28;20184;-71
2023/06/02 11:32:55;;;;;;;23.17;7.93;;;15.70;99.90;;;;;;5053896;28;20212;-70
2023/06/02 11:35:25;;;;;;;19.37;7.13;;;15.70;99.90;;;;;;5054015;28;20185;-70
2023/06/02 11:38:08;;;;;;;23.90;7.63;;;15.70;99.90;;;;;;5046299;28;20182;-71
2023/06/02 11:40:38;;;;;;;31.07;7.30;;;15.60;99.90;;;;;;5034771;28;20201;-71
2023/06/02 11:43:06;;;;;;;27.03;8.50;;;15.60;99.90;;;;;;5048717;28;20188;-71
2023/06/02 11:45:34;;;;;;;16.33;6.03;;;15.60;99.90;;;;;;5054102;28;20708;-72
2023/06/02 11:48:08;;;;;;;15.87;6.80;;;15.60;99.90;;;;;;5036263;28;20192;-71
2023/06/02 11:50:36;;;;;;;20.00;7.70;;;15.60;99.90;;;;;;5034488;28;20194;-71
2023/06/02 11:53:11;;;;;;;24.13;7.50;;;15.60;99.90;;;;;;5042221;28;20255;-72
2023/06/02 11:55:39;;;;;;;20.20;8.00;;;15.50;99.90;;;;;;5053804;28;20650;-70
2023/06/02 11:58:27;;;;;;;59.60;22.43;;;15.40;99.90;;;;;;5053447;28;20267;-72
2023/06/02 12:01:09;;;;;;;68.07;26.50;;;15.50;99.90;;;;;;5053864;28;20181;-72
2023/06/02 12:03:37;;;;;;;65.20;22.73;;;15.50;99.90;;;;;;5052704;28;20610;-71
2023/06/02 12:06:15;;;;;;;57.03;24.80;;;15.40;99.90;;;;;;5052179;28;20181;-71
2023/06/02 12:08:44;;;;;;;45.83;21.00;;;15.40;99.90;;;;;;5053638;28;20184;-71
2023/06/02 12:11:18;;;;;;;47.00;18.50;;;15.40;99.90;;;;;;5053910;28;20186;-71
2023/06/02 12:14:07;;;;;;;42.97;18.50;;;15.40;99.90;;;;;;5053774;28;20222;-71
2023/06/02 12:16:37;;;;;;;43.07;19.30;;;15.40;99.90;;;;;;5054238;28;20264;-70
2023/06/02 12:19:15;;;;;;;40.37;19.37;;;15.30;99.90;;;;;;5054057;28;20200;-71
2023/06/02 12:21:45;;;;;;;39.97;18.00;;;15.30;99.90;;;;;;5035702;28;20653;-71
2023/06/02 12:24:28;;;;;;;42.20;19.47;;;15.30;99.90;;;;;;5053866;28;20203;-71
2023/06/02 12:26:56;;;;;;;42.90;16.63;;;15.30;99.90;;;;;;5053591;28;20175;-72
2023/06/02 12:29:24;;;;;;;34.83;15.50;;;15.30;99.90;;;;;;5053688;28;20184;-71
2023/06/02 12:32:02;;;;;;;39.47;15.93;;;15.30;99.90;;;;;;5053898;28;20218;-72
2023/06/02 12:34:30;;;;;;;24.43;12.17;;;15.40;99.90;;;;;;5053730;28;20245;-71
2023/06/02 12:36:58;;;;;;;40.30;15.00;;;15.40;99.90;;;;;;5035559;28;20262;-71
2023/06/02 12:39:25;;;;;;;33.00;14.07;;;15.40;99.90;;;;;;5053651;28;20629;-71
2023/06/02 12:41:53;;;;;;;32.07;13.17;;;15.40;99.90;;;;;;5053425;28;20548;-70
2023/06/02 12:44:21;;;;;;;31.77;13.17;;;15.40;99.90;;;;;;5053156;28;20645;-71
2023/06/02 12:46:48;;;;;;;27.23;12.67;;;15.40;99.90;;;;;;5052390;28;20255;-71
2023/06/02 12:49:16;;;;;;;25.43;11.83;;;15.40;99.90;;;;;;5052575;28;20176;-70
2023/06/02 12:51:43;;;;;;;26.70;11.37;;;15.40;99.90;;;;;;5052375;28;20176;-71
2023/06/02 12:54:11;;;;;;;34.20;12.20;;;15.40;99.90;;;;;;5052458;28;20220;-72
2023/06/02 12:56:38;;;;;;;27.43;10.53;;;15.40;99.90;;;;;;5052306;28;20172;-72
2023/06/02 12:59:09;;;;;;;28.43;11.37;;;15.40;99.90;;;;;;5052166;28;20268;-71
2023/06/02 13:01:36;;;;;;;31.97;12.73;;;15.40;99.90;;;;;;5052510;28;20180;-72
2023/06/02 13:04:04;;;;;;;24.23;10.97;;;15.30;99.90;;;;;;5052204;28;20653;-71
2023/06/02 13:06:31;;;;;;;27.60;11.67;;;15.30;99.90;;;;;;5052360;28;20181;-72
2023/06/02 13:08:58;;;;;;;27.50;11.17;;;15.30;99.90;;;;;;5052361;28;20226;-71
2023/06/02 13:11:26;;;;;;;23.03;10.60;;;15.30;99.90;;;;;;5052020;28;20176;-72
2023/06/02 13:13:53;;;;;;;31.80;10.93;;;15.30;99.90;;;;;;5051996;28;20652;-71